sensor_id;sensor_type;location;lat;lon;timestamp;pressure;altitude;pressure_sealevel;temperature;humidity
75938;BME280;64615;32.062;34.834;2023-08-06T00:00:16;100376.78;;;28.12;62.39
75938;BME280;64615;32.062;34.834;2023-08-06T00:02:41;100378.72;;;28.12;62.29
75938;BME280;64615;32.062;34.834;2023-08-06T00:05:07;100385.00;;;28.12;62.22
75938;BME280;64615;32.062;34.834;2023-08-06T00:07:33;100377.88;;;28.11;62.39
75938;BME280;64615;32.062;34.834;2023-08-06T00:09:58;100383.91;;;28.13;62.43
75938;BME280;64615;32.062;34.834;2023-08-06T00:12:24;100383.91;;;28.13;62.15
75938;BME280;64615;32.062;34.834;2023-08-06T00:14:50;100385.53;;;28.14;62.25
75938;BME280;64615;32.062;34.834;2023-08-06T00:17:16;100385.53;;;28.14;62.39
75938;BME280;64615;32.062;34.834;2023-08-06T00:19:42;100380.88;;;28.15;62.23
75938;BME280;64615;32.062;34.834;2023-08-06T00:22:08;100384.72;;;28.14;62.13
75938;BME280;64615;32.062;34.834;2023-08-06T00:24:34;100385.53;;;28.14;62.16
75938;BME280;64615;32.062;34.834;2023-08-06T00:27:00;100390.66;;;28.16;62.27
75938;BME280;64615;32.062;34.834;2023-08-06T00:29:26;100387.63;;;28.17;62.21
75938;BME280;64615;32.062;34.834;2023-08-06T00:31:52;100386.72;;;28.22;62.06
75938;BME280;64615;32.062;34.834;2023-08-06T00:34:17;100386.44;;;28.23;62.14
75938;BME280;64615;32.062;34.834;2023-08-06T00:36:43;100379.03;;;28.24;61.79
75938;BME280;64615;32.062;34.834;2023-08-06T00:39:08;100373.03;;;28.22;62.27
75938;BME280;64615;32.062;34.834;2023-08-06T00:41:34;100375.28;;;28.20;62.21
75938;BME280;64615;32.062;34.834;2023-08-06T00:44:00;100371.44;;;28.21;61.94
75938;BME280;64615;32.062;34.834;2023-08-06T00:46:26;100376.41;;;28.19;61.75
75938;BME280;64615;32.062;34.834;2023-08-06T00:48:52;100377.22;;;28.19;62.00
75938;BME280;64615;32.062;34.834;2023-08-06T00:51:17;100377.22;;;28.19;61.94
75938;BME280;64615;32.062;34.834;2023-08-06T00:53:44;100370.09;;;28.18;62.16
75938;BME280;64615;32.062;34.834;2023-08-06T00:56:10;100375.59;;;28.18;62.10
75938;BME280;64615;32.062;34.834;2023-08-06T00:58:38;100372.84;;;28.18;62.02
75938;BME280;64615;32.062;34.834;2023-08-06T01:01:04;100373.66;;;28.19;61.94
75938;BME280;64615;32.062;34.834;2023-08-06T01:03:30;100377.50;;;28.18;61.92
75938;BME280;64615;32.062;34.834;2023-08-06T01:05:56;100376.41;;;28.19;62.01
75938;BME280;64615;32.062;34.834;2023-08-06T01:08:30;100371.22;;;28.17;61.91
75938;BME280;64615;32.062;34.834;2023-08-06T01:14:33;100373.13;;;28.17;62.12
75938;BME280;64615;32.062;34.834;2023-08-06T01:17:04;100376.50;;;28.14;62.09
75938;BME280;64615;32.062;34.834;2023-08-06T01:19:30;100370.50;;;28.12;62.08
75938;BME280;64615;32.062;34.834;2023-08-06T01:21:56;100371.31;;;28.12;61.87
75938;BME280;64615;32.062;34.834;2023-08-06T01:24:21;100375.47;;;28.10;62.08
75938;BME280;64615;32.062;34.834;2023-08-06T01:30:32;100375.47;;;28.10;61.96
75938;BME280;64615;32.062;34.834;2023-08-06T01:33:04;100376.28;;;28.10;62.11
75938;BME280;64615;32.062;34.834;2023-08-06T01:35:32;100367.78;;;28.12;62.06
75938;BME280;64615;32.062;34.834;2023-08-06T01:38:00;100372.66;;;28.15;61.98
75938;BME280;64615;32.062;34.834;2023-08-06T01:40:26;100381.34;;;28.17;62.01
75938;BME280;64615;32.062;34.834;2023-08-06T01:42:53;100371.50;;;28.16;61.85
75938;BME280;64615;32.062;34.834;2023-08-06T01:45:19;100368.00;;;28.15;61.89
75938;BME280;64615;32.062;34.834;2023-08-06T01:47:45;100375.06;;;28.16;61.73
75938;BME280;64615;32.062;34.834;2023-08-06T01:50:10;100371.50;;;28.16;61.92
75938;BME280;64615;32.062;34.834;2023-08-06T01:52:36;100375.38;;;28.15;61.90
75938;BME280;64615;32.062;34.834;2023-08-06T01:55:01;100381.69;;;28.15;61.95
75938;BME280;64615;32.062;34.834;2023-08-06T01:57:28;100374.56;;;28.14;61.85
75938;BME280;64615;32.062;34.834;2023-08-06T01:59:53;100373.75;;;28.14;61.84
75938;BME280;64615;32.062;34.834;2023-08-06T02:02:19;100377.31;;;28.14;61.93
75938;BME280;64615;32.062;34.834;2023-08-06T02:04:45;100385.53;;;28.14;61.84
75938;BME280;64615;32.062;34.834;2023-08-06T02:07:10;100379.22;;;28.14;61.93
75938;BME280;64615;32.062;34.834;2023-08-06T02:09:36;100381.16;;;28.13;61.87
75938;BME280;64615;32.062;34.834;2023-08-06T02:12:02;100379.53;;;28.12;61.88
75938;BME280;64615;32.062;34.834;2023-08-06T02:14:28;100384.47;;;28.10;61.90
75938;BME280;64615;32.062;34.834;2023-08-06T02:16:53;100382.03;;;28.09;62.31
75938;BME280;64615;32.062;34.834;2023-08-06T02:19:19;100377.69;;;28.08;62.30
75938;BME280;64615;32.062;34.834;2023-08-06T02:21:44;100370.56;;;28.07;61.80
75938;BME280;64615;32.062;34.834;2023-08-06T02:24:10;100371.69;;;28.06;62.16
75938;BME280;64615;32.062;34.834;2023-08-06T02:26:36;100375.56;;;28.05;62.17
75938;BME280;64615;32.062;34.834;2023-08-06T02:29:01;100374.75;;;28.04;62.01
75938;BME280;64615;32.062;34.834;2023-08-06T02:31:27;100376.38;;;28.05;62.03
75938;BME280;64615;32.062;34.834;2023-08-06T02:33:52;100380.22;;;28.04;61.96
75938;BME280;64615;32.062;34.834;2023-08-06T02:36:19;100384.06;;;28.03;62.00
75938;BME280;64615;32.062;34.834;2023-08-06T02:38:44;100387.00;;;28.07;62.05
75938;BME280;64615;32.062;34.834;2023-08-06T02:41:10;100386.41;;;28.10;61.89
75938;BME280;64615;32.062;34.834;2023-08-06T02:43:36;100391.28;;;28.13;61.50
75938;BME280;64615;32.062;34.834;2023-08-06T02:46:01;100399.75;;;28.11;61.87
75938;BME280;64615;32.062;34.834;2023-08-06T02:48:27;100398.94;;;28.11;61.81
75938;BME280;64615;32.062;34.834;2023-08-06T02:50:56;100401.44;;;28.12;61.82
75938;BME280;64615;32.062;34.834;2023-08-06T02:53:22;100396.22;;;28.11;61.89
75938;BME280;64615;32.062;34.834;2023-08-06T02:55:47;100397.34;;;28.10;61.65
75938;BME280;64615;32.062;34.834;2023-08-06T02:58:16;100396.53;;;28.09;61.89
75938;BME280;64615;32.062;34.834;2023-08-06T03:00:43;100390.53;;;28.07;61.97
75938;BME280;64615;32.062;34.834;2023-08-06T03:03:10;100391.97;;;28.05;62.07
75938;BME280;64615;32.062;34.834;2023-08-06T03:05:35;100396.63;;;28.04;61.90
75938;BME280;64615;32.062;34.834;2023-08-06T03:08:01;100400.47;;;28.03;61.97
75938;BME280;64615;32.062;34.834;2023-08-06T03:10:27;100398.84;;;28.02;61.85
75938;BME280;64615;32.062;34.834;2023-08-06T03:12:52;100394.50;;;28.01;62.05
75938;BME280;64615;32.062;34.834;2023-08-06T03:15:18;100405.44;;;28.01;62.12
75938;BME280;64615;32.062;34.834;2023-08-06T03:17:43;100408.16;;;28.01;61.64
75938;BME280;64615;32.062;34.834;2023-08-06T03:20:10;100399.97;;;28.01;62.02
75938;BME280;64615;32.062;34.834;2023-08-06T03:22:36;100403.22;;;28.03;61.95
75938;BME280;64615;32.062;34.834;2023-08-06T03:25:02;100405.13;;;28.03;62.12
75938;BME280;64615;32.062;34.834;2023-08-06T03:27:27;100402.09;;;28.04;61.70
75938;BME280;64615;32.062;34.834;2023-08-06T03:29:53;100417.41;;;28.05;61.84
75938;BME280;64615;32.062;34.834;2023-08-06T03:32:19;100407.25;;;28.06;61.67
75938;BME280;64615;32.062;34.834;2023-08-06T03:34:44;100408.88;;;28.07;61.72
75938;BME280;64615;32.062;34.834;2023-08-06T03:37:10;100413.53;;;28.06;61.60
75938;BME280;64615;32.062;34.834;2023-08-06T03:39:35;100420.66;;;28.07;61.84
75938;BME280;64615;32.062;34.834;2023-08-06T03:42:01;100416.00;;;28.08;61.85
75938;BME280;64615;32.062;34.834;2023-08-06T03:44:27;100422.81;;;28.10;61.66
75938;BME280;64615;32.062;34.834;2023-08-06T03:46:53;100425.25;;;28.12;61.64
75938;BME280;64615;32.062;34.834;2023-08-06T03:49:19;100427.97;;;28.12;61.76
75938;BME280;64615;32.062;34.834;2023-08-06T03:51:44;100429.59;;;28.13;61.42
75938;BME280;64615;32.062;34.834;2023-08-06T03:54:10;100432.06;;;28.14;61.60
75938;BME280;64615;32.062;34.834;2023-08-06T03:56:36;100437.53;;;28.14;61.36
75938;BME280;64615;32.062;34.834;2023-08-06T03:59:01;100444.31;;;28.17;61.28
75938;BME280;64615;32.062;34.834;2023-08-06T04:01:27;100451.13;;;28.19;61.35
75938;BME280;64615;32.062;34.834;2023-08-06T04:03:52;100455.16;;;28.22;61.30
75938;BME280;64615;32.062;34.834;2023-08-06T04:06:18;100463.88;;;28.24;61.22
75938;BME280;64615;32.062;34.834;2023-08-06T04:08:44;100461.97;;;28.25;61.33
75938;BME280;64615;32.062;34.834;2023-08-06T04:11:09;100454.75;;;28.29;61.07
75938;BME280;64615;32.062;34.834;2023-08-06T04:13:35;100461.25;;;28.33;60.86
75938;BME280;64615;32.062;34.834;2023-08-06T04:16:02;100465.03;;;28.37;60.87
75938;BME280;64615;32.062;34.834;2023-08-06T04:18:28;100473.72;;;28.39;60.70
75938;BME280;64615;32.062;34.834;2023-08-06T04:20:53;100472.34;;;28.41;60.82
75938;BME280;64615;32.062;34.834;2023-08-06T04:23:20;100477.38;;;28.48;60.66
75938;BME280;64615;32.062;34.834;2023-08-06T04:25:46;100477.38;;;28.48;60.52
75938;BME280;64615;32.062;34.834;2023-08-06T04:28:12;100475.47;;;28.48;60.66
75938;BME280;64615;32.062;34.834;2023-08-06T04:30:37;100479.81;;;28.49;60.56
75938;BME280;64615;32.062;34.834;2023-08-06T04:33:03;100472.44;;;28.50;60.59
75938;BME280;64615;32.062;34.834;2023-08-06T04:35:29;100476.16;;;28.54;60.45
75938;BME280;64615;32.062;34.834;2023-08-06T04:37:54;100479.44;;;28.56;60.11
75938;BME280;64615;32.062;34.834;2023-08-06T04:40:20;100477.19;;;28.58;60.40
75938;BME280;64615;32.062;34.834;2023-08-06T04:42:46;100473.34;;;28.59;60.15
75938;BME280;64615;32.062;34.834;2023-08-06T04:45:11;100484.81;;;28.61;60.11
75938;BME280;64615;32.062;34.834;2023-08-06T04:47:37;100479.53;;;28.64;60.34
75938;BME280;64615;32.062;34.834;2023-08-06T04:50:03;100483.59;;;28.67;60.23
75938;BME280;64615;32.062;34.834;2023-08-06T04:52:28;100478.59;;;28.69;60.09
75938;BME280;64615;32.062;34.834;2023-08-06T04:54:54;100482.41;;;28.73;59.60
75938;BME280;64615;32.062;34.834;2023-08-06T04:57:21;100484.81;;;28.75;59.76
75938;BME280;64615;32.062;34.834;2023-08-06T04:59:46;100491.63;;;28.77;59.63
75938;BME280;64615;32.062;34.834;2023-08-06T05:02:12;100490.19;;;28.80;59.77
75938;BME280;64615;32.062;34.834;2023-08-06T05:04:38;100488.28;;;28.80;59.74
75938;BME280;64615;32.062;34.834;2023-08-06T05:07:05;100493.16;;;28.83;59.46
75938;BME280;64615;32.062;34.834;2023-08-06T05:09:31;100493.63;;;28.85;59.41
75938;BME280;64615;32.062;34.834;2023-08-06T05:11:56;100493.34;;;28.87;59.35
75938;BME280;64615;32.062;34.834;2023-08-06T05:14:22;100484.81;;;28.88;59.62
75938;BME280;64615;32.062;34.834;2023-08-06T05:16:48;100492.94;;;28.93;59.32
75938;BME280;64615;32.062;34.834;2023-08-06T05:19:13;100481.66;;;28.95;59.22
75938;BME280;64615;32.062;34.834;2023-08-06T05:21:39;100483.28;;;28.96;59.51
75938;BME280;64615;32.062;34.834;2023-08-06T05:24:04;100490.38;;;28.97;59.00
75938;BME280;64615;32.062;34.834;2023-08-06T05:26:30;100493.94;;;28.97;59.05
75938;BME280;64615;32.062;34.834;2023-08-06T05:28:56;100496.38;;;28.99;59.14
75938;BME280;64615;32.062;34.834;2023-08-06T05:31:21;100492.50;;;29.00;58.89
75938;BME280;64615;32.062;34.834;2023-08-06T05:33:47;100499.63;;;29.01;59.15
75938;BME280;64615;32.062;34.834;2023-08-06T05:36:12;100500.44;;;29.01;59.09
75938;BME280;64615;32.062;34.834;2023-08-06T05:38:38;100493.84;;;29.02;59.29
75938;BME280;64615;32.062;34.834;2023-08-06T05:41:04;100507.84;;;29.01;59.14
75938;BME280;64615;32.062;34.834;2023-08-06T05:43:29;100505.09;;;29.01;59.31
75938;BME280;64615;32.062;34.834;2023-08-06T05:45:56;100506.72;;;29.02;59.11
75938;BME280;64615;32.062;34.834;2023-08-06T05:48:21;100504.28;;;29.00;59.23
75938;BME280;64615;32.062;34.834;2023-08-06T05:50:49;100511.38;;;29.01;59.36
75938;BME280;64615;32.062;34.834;2023-08-06T05:53:15;100501.53;;;29.00;59.39
75938;BME280;64615;32.062;34.834;2023-08-06T05:55:40;100509.75;;;29.00;59.47
75938;BME280;64615;32.062;34.834;2023-08-06T05:58:06;100507.03;;;29.00;59.31
75938;BME280;64615;32.062;34.834;2023-08-06T06:00:32;100508.16;;;28.99;59.26
75938;BME280;64615;32.062;34.834;2023-08-06T06:02:57;100498.78;;;29.00;59.45
75938;BME280;64615;32.062;34.834;2023-08-06T06:05:23;100504.91;;;28.97;59.58
75938;BME280;64615;32.062;34.834;2023-08-06T06:07:48;100504.91;;;28.97;59.46
75938;BME280;64615;32.062;34.834;2023-08-06T06:10:14;100510.38;;;28.97;59.27
75938;BME280;64615;32.062;34.834;2023-08-06T06:12:40;100505.19;;;28.96;59.87
75938;BME280;64615;32.062;34.834;2023-08-06T06:15:06;100507.47;;;28.94;59.69
75938;BME280;64615;32.062;34.834;2023-08-06T06:17:32;100510.69;;;28.96;59.66
75938;BME280;64615;32.062;34.834;2023-08-06T06:19:57;100514.25;;;28.96;59.45
75938;BME280;64615;32.062;34.834;2023-08-06T06:22:23;100518.59;;;28.97;59.88
75938;BME280;64615;32.062;34.834;2023-08-06T06:24:49;100518.09;;;28.95;59.33
75938;BME280;64615;32.062;34.834;2023-08-06T06:27:14;100511.78;;;28.95;59.76
75938;BME280;64615;32.062;34.834;2023-08-06T06:29:40;100506.00;;;28.96;59.70
75938;BME280;64615;32.062;34.834;2023-08-06T06:32:06;100515.88;;;28.97;59.86
75938;BME280;64615;32.062;34.834;2023-08-06T06:34:31;100513.44;;;28.96;59.52
75938;BME280;64615;32.062;34.834;2023-08-06T06:36:57;100522.47;;;28.96;59.45
75938;BME280;64615;32.062;34.834;2023-08-06T06:39:23;100518.09;;;28.95;59.92
75938;BME280;64615;32.062;34.834;2023-08-06T06:41:48;100518.09;;;28.95;59.65
75938;BME280;64615;32.062;34.834;2023-08-06T06:44:14;100516.97;;;28.96;59.60
75938;BME280;64615;32.062;34.834;2023-08-06T06:46:40;100512.59;;;28.95;59.46
75938;BME280;64615;32.062;34.834;2023-08-06T06:49:06;100518.09;;;28.95;59.54
75938;BME280;64615;32.062;34.834;2023-08-06T06:51:32;100512.94;;;28.94;59.48
75938;BME280;64615;32.062;34.834;2023-08-06T06:53:58;100523.56;;;28.95;59.45
75938;BME280;64615;32.062;34.834;2023-08-06T06:56:23;100522.75;;;28.95;59.68
75938;BME280;64615;32.062;34.834;2023-08-06T06:58:49;100518.91;;;28.96;59.87
75938;BME280;64615;32.062;34.834;2023-08-06T07:01:14;100519.72;;;28.96;59.37
75938;BME280;64615;32.062;34.834;2023-08-06T07:03:40;100522.47;;;28.96;59.32
75938;BME280;64615;32.062;34.834;2023-08-06T07:06:06;100521.66;;;28.96;59.36
75938;BME280;64615;32.062;34.834;2023-08-06T07:08:32;100521.66;;;28.96;59.69
75938;BME280;64615;32.062;34.834;2023-08-06T07:11:05;100527.41;;;28.94;59.66
75938;BME280;64615;32.062;34.834;2023-08-06T07:13:32;100519.53;;;28.93;59.42
75938;BME280;64615;32.062;34.834;2023-08-06T07:15:58;100517.09;;;28.91;59.61
75938;BME280;64615;32.062;34.834;2023-08-06T07:18:24;100512.72;;;28.90;59.86
75938;BME280;64615;32.062;34.834;2023-08-06T07:20:53;100520.94;;;28.90;59.47
75938;BME280;64615;32.062;34.834;2023-08-06T07:23:24;100513.53;;;28.91;59.81
75938;BME280;64615;32.062;34.834;2023-08-06T07:25:50;100510.31;;;28.89;59.80
75938;BME280;64615;32.062;34.834;2023-08-06T07:28:16;100508.34;;;28.89;59.64
75938;BME280;64615;32.062;34.834;2023-08-06T07:30:43;100523.69;;;28.90;59.61
75938;BME280;64615;32.062;34.834;2023-08-06T07:33:09;100508.69;;;28.88;59.54
75938;BME280;64615;32.062;34.834;2023-08-06T07:35:35;100518.53;;;28.89;59.72
75938;BME280;64615;32.062;34.834;2023-08-06T07:38:01;100519.31;;;28.89;59.68
75938;BME280;64615;32.062;34.834;2023-08-06T07:40:27;100517.72;;;28.88;59.31
75938;BME280;64615;32.062;34.834;2023-08-06T07:42:53;100514.16;;;28.88;59.48
75938;BME280;64615;32.062;34.834;2023-08-06T07:45:18;100504.31;;;28.87;59.79
75938;BME280;64615;32.062;34.834;2023-08-06T07:47:44;100502.38;;;28.87;59.63
75938;BME280;64615;32.062;34.834;2023-08-06T07:50:10;100498.81;;;28.87;59.69
75938;BME280;64615;32.062;34.834;2023-08-06T07:52:36;100497.19;;;28.86;59.72
75938;BME280;64615;32.062;34.834;2023-08-06T07:55:01;100503.50;;;28.86;59.68
75938;BME280;64615;32.062;34.834;2023-08-06T07:57:30;100498.00;;;28.86;59.46
75938;BME280;64615;32.062;34.834;2023-08-06T07:59:56;100499.63;;;28.87;59.52
75938;BME280;64615;32.062;34.834;2023-08-06T08:02:22;100498.00;;;28.86;59.48
75938;BME280;64615;32.062;34.834;2023-08-06T08:04:48;100495.56;;;28.85;59.60
75938;BME280;64615;32.062;34.834;2023-08-06T08:07:14;100489.28;;;28.84;59.77
75938;BME280;64615;32.062;34.834;2023-08-06T08:09:40;100493.97;;;28.84;59.73
75938;BME280;64615;32.062;34.834;2023-08-06T08:12:06;100487.69;;;28.83;59.71
75938;BME280;64615;32.062;34.834;2023-08-06T08:14:31;100491.53;;;28.82;59.80
75938;BME280;64615;32.062;34.834;2023-08-06T08:17:04;100489.59;;;28.83;59.66
75938;BME280;64615;32.062;34.834;2023-08-06T08:19:31;100497.00;;;28.82;59.72
75938;BME280;64615;32.062;34.834;2023-08-06T08:21:56;100486.34;;;28.81;59.68
75938;BME280;64615;32.062;34.834;2023-08-06T08:24:22;100487.78;;;28.78;59.85
75938;BME280;64615;32.062;34.834;2023-08-06T08:26:54;100494.03;;;28.79;59.73
75938;BME280;64615;32.062;34.834;2023-08-06T08:29:20;100491.00;;;28.80;59.69
75938;BME280;64615;32.062;34.834;2023-08-06T08:31:46;100493.44;;;28.82;59.49
75938;BME280;64615;32.062;34.834;2023-08-06T08:34:15;100500.03;;;28.81;59.70
75938;BME280;64615;32.062;34.834;2023-08-06T08:36:40;100501.97;;;28.80;59.52
75938;BME280;64615;32.062;34.834;2023-08-06T08:39:06;100491.00;;;28.80;59.40
75938;BME280;64615;32.062;34.834;2023-08-06T08:41:33;100499.22;;;28.80;59.43
75938;BME280;64615;32.062;34.834;2023-08-06T08:43:59;100494.56;;;28.81;59.25
75938;BME280;64615;32.062;34.834;2023-08-06T08:46:30;100485.81;;;28.79;59.63
75938;BME280;64615;32.062;34.834;2023-08-06T08:48:59;100491.00;;;28.80;59.63
75938;BME280;64615;32.062;34.834;2023-08-06T08:51:27;100482.31;;;28.78;59.47
75938;BME280;64615;32.062;34.834;2023-08-06T08:53:53;100482.31;;;28.78;59.67
75938;BME280;64615;32.062;34.834;2023-08-06T08:56:21;100481.78;;;28.76;59.68
75938;BME280;64615;32.062;34.834;2023-08-06T08:58:47;100488.91;;;28.77;59.84
75938;BME280;64615;32.062;34.834;2023-08-06T09:01:15;100485.03;;;28.78;59.80
75938;BME280;64615;32.062;34.834;2023-08-06T09:03:41;100482.91;;;28.75;59.61
75938;BME280;64615;32.062;34.834;2023-08-06T09:06:10;100473.56;;;28.76;59.57
75938;BME280;64615;32.062;34.834;2023-08-06T09:08:40;100480.97;;;28.76;59.75
75938;BME280;64615;32.062;34.834;2023-08-06T09:11:09;100483.72;;;28.76;59.65
75938;BME280;64615;32.062;34.834;2023-08-06T09:13:38;100476.94;;;28.73;59.59
75938;BME280;64615;32.062;34.834;2023-08-06T09:16:04;100473.88;;;28.75;59.68
75938;BME280;64615;32.062;34.834;2023-08-06T09:18:30;100479.34;;;28.75;59.80
75938;BME280;64615;32.062;34.834;2023-08-06T09:20:57;100474.97;;;28.74;59.55
75938;BME280;64615;32.062;34.834;2023-08-06T09:23:32;100470.63;;;28.73;59.81
75938;BME280;64615;32.062;34.834;2023-08-06T09:25:59;100476.94;;;28.73;59.69
75938;BME280;64615;32.062;34.834;2023-08-06T09:28:25;100465.97;;;28.73;59.59
75938;BME280;64615;32.062;34.834;2023-08-06T09:31:01;100468.72;;;28.73;59.61
75938;BME280;64615;32.062;34.834;2023-08-06T09:33:29;100464.34;;;28.72;59.51
75938;BME280;64615;32.062;34.834;2023-08-06T09:35:55;100465.41;;;28.71;59.71
75938;BME280;64615;32.062;34.834;2023-08-06T09:38:20;100470.09;;;28.71;59.80
75938;BME280;64615;32.062;34.834;2023-08-06T09:40:46;100481.84;;;28.71;59.65
75938;BME280;64615;32.062;34.834;2023-08-06T09:43:12;100474.75;;;28.70;59.98
75938;BME280;64615;32.062;34.834;2023-08-06T09:45:39;100468.47;;;28.70;59.94
75938;BME280;64615;32.062;34.834;2023-08-06T09:48:09;100473.94;;;28.70;59.47
75938;BME280;64615;32.062;34.834;2023-08-06T09:50:37;100478.59;;;28.69;59.89
75938;BME280;64615;32.062;34.834;2023-08-06T09:53:04;100468.78;;;28.68;59.59
75938;BME280;64615;32.062;34.834;2023-08-06T09:55:32;100475.03;;;28.69;59.74
75938;BME280;64615;32.062;34.834;2023-08-06T09:57:58;100460.56;;;28.68;59.87
75938;BME280;64615;32.062;34.834;2023-08-06T10:00:24;100468.78;;;28.68;59.86
75938;BME280;64615;32.062;34.834;2023-08-06T10:02:52;100468.78;;;28.68;59.61
75938;BME280;64615;32.062;34.834;2023-08-06T10:05:21;100477.78;;;28.69;59.47
75938;BME280;64615;32.062;34.834;2023-08-06T10:07:48;100467.97;;;28.68;59.66
75938;BME280;64615;32.062;34.834;2023-08-06T10:10:15;100475.88;;;28.69;59.75
75938;BME280;64615;32.062;34.834;2023-08-06T10:12:51;100480.53;;;28.69;59.54
75938;BME280;64615;32.062;34.834;2023-08-06T10:15:22;100473.44;;;28.68;59.64
75938;BME280;64615;32.062;34.834;2023-08-06T10:17:51;100466.03;;;28.68;59.62
75938;BME280;64615;32.062;34.834;2023-08-06T10:20:18;100472.63;;;28.67;59.65
75938;BME280;64615;32.062;34.834;2023-08-06T10:22:46;100471.00;;;28.66;59.65
75938;BME280;64615;32.062;34.834;2023-08-06T10:25:24;100474.03;;;28.64;59.96
75938;BME280;64615;32.062;34.834;2023-08-06T10:30:23;100457.41;;;28.61;59.79
75938;BME280;64615;32.062;34.834;2023-08-06T10:32:57;100459.03;;;28.62;59.92
75938;BME280;64615;32.062;34.834;2023-08-06T10:35:30;100457.41;;;28.61;60.07
75938;BME280;64615;32.062;34.834;2023-08-06T10:38:19;100461.25;;;28.60;59.73
75938;BME280;64615;32.062;34.834;2023-08-06T10:43:30;100459.84;;;28.62;59.94
75938;BME280;64615;32.062;34.834;2023-08-06T10:45:58;100453.56;;;28.62;59.91
75938;BME280;64615;32.062;34.834;2023-08-06T10:48:44;100449.69;;;28.63;59.83
75938;BME280;64615;32.062;34.834;2023-08-06T10:51:12;100455.16;;;28.63;59.89
75938;BME280;64615;32.062;34.834;2023-08-06T10:53:42;100456.78;;;28.64;59.70
75938;BME280;64615;32.062;34.834;2023-08-06T10:56:17;100457.91;;;28.63;59.61
75938;BME280;64615;32.062;34.834;2023-08-06T10:58:45;100453.56;;;28.62;60.00
75938;BME280;64615;32.062;34.834;2023-08-06T11:01:11;100448.09;;;28.62;59.63
75938;BME280;64615;32.062;34.834;2023-08-06T11:03:38;100440.97;;;28.61;59.79
75938;BME280;64615;32.062;34.834;2023-08-06T11:06:06;100441.78;;;28.61;59.89
75938;BME280;64615;32.062;34.834;2023-08-06T11:08:35;100436.31;;;28.61;59.62
75938;BME280;64615;32.062;34.834;2023-08-06T11:13:36;100442.09;;;28.60;59.59
75938;BME280;64615;32.062;34.834;2023-08-06T11:16:02;100439.06;;;28.61;59.73
75938;BME280;64615;32.062;34.834;2023-08-06T11:18:28;100435.81;;;28.59;59.59
75938;BME280;64615;32.062;34.834;2023-08-06T11:20:54;100438.84;;;28.58;59.70
75938;BME280;64615;32.062;34.834;2023-08-06T11:23:20;100445.44;;;28.57;59.66
75938;BME280;64615;32.062;34.834;2023-08-06T11:25:46;100441.91;;;28.56;60.00
75938;BME280;64615;32.062;34.834;2023-08-06T11:28:12;100437.25;;;28.57;59.79
75938;BME280;64615;32.062;34.834;2023-08-06T11:30:38;100441.91;;;28.56;59.91
75938;BME280;64615;32.062;34.834;2023-08-06T11:33:06;100439.16;;;28.56;59.98
75938;BME280;64615;32.062;34.834;2023-08-06T11:35:35;100439.47;;;28.55;60.00
75938;BME280;64615;32.062;34.834;2023-08-06T11:38:00;100439.47;;;28.55;59.93
75938;BME280;64615;32.062;34.834;2023-08-06T11:40:26;100439.47;;;28.55;59.70
75938;BME280;64615;32.062;34.834;2023-08-06T11:42:52;100448.50;;;28.55;59.93
75938;BME280;64615;32.062;34.834;2023-08-06T11:45:22;100445.22;;;28.53;59.85
75938;BME280;64615;32.062;34.834;2023-08-06T11:47:52;100437.00;;;28.53;59.70
75938;BME280;64615;32.062;34.834;2023-08-06T11:50:25;100442.19;;;28.55;59.90
75938;BME280;64615;32.062;34.834;2023-08-06T11:52:59;100448.78;;;28.54;59.94
75938;BME280;64615;32.062;34.834;2023-08-06T11:55:27;100438.94;;;28.53;59.80
75938;BME280;64615;32.062;34.834;2023-08-06T11:57:53;100440.91;;;28.52;59.91
75938;BME280;64615;32.062;34.834;2023-08-06T12:00:20;100433.78;;;28.51;59.87
75938;BME280;64615;32.062;34.834;2023-08-06T12:02:48;100442.00;;;28.51;60.04
75938;BME280;64615;32.062;34.834;2023-08-06T12:05:15;100437.00;;;28.53;60.03
75938;BME280;64615;32.062;34.834;2023-08-06T12:07:43;100441.09;;;28.56;60.08
75938;BME280;64615;32.062;34.834;2023-08-06T12:10:09;100441.91;;;28.56;59.81
75938;BME280;64615;32.062;34.834;2023-08-06T12:12:35;100429.03;;;28.57;59.67
75938;BME280;64615;32.062;34.834;2023-08-06T12:15:03;100438.34;;;28.56;59.89
75938;BME280;64615;32.062;34.834;2023-08-06T12:17:28;100447.88;;;28.58;59.70
75938;BME280;64615;32.062;34.834;2023-08-06T12:19:54;100443.53;;;28.57;59.88
75938;BME280;64615;32.062;34.834;2023-08-06T12:22:20;100434.50;;;28.57;59.92
75938;BME280;64615;32.062;34.834;2023-08-06T12:24:46;100441.09;;;28.56;59.86
75938;BME280;64615;32.062;34.834;2023-08-06T12:27:13;100434.50;;;28.57;59.94
75938;BME280;64615;32.062;34.834;2023-08-06T12:29:48;100441.56;;;28.58;59.69
75938;BME280;64615;32.062;34.834;2023-08-06T12:32:14;100442.72;;;28.57;59.93
75938;BME280;64615;32.062;34.834;2023-08-06T12:34:41;100433.69;;;28.56;59.69
75938;BME280;64615;32.062;34.834;2023-08-06T12:37:07;100430.13;;;28.56;59.83
75938;BME280;64615;32.062;34.834;2023-08-06T12:39:34;100434.50;;;28.57;59.98
75938;BME280;64615;32.062;34.834;2023-08-06T12:42:01;100437.25;;;28.57;59.97
75938;BME280;64615;32.062;34.834;2023-08-06T12:44:26;100433.69;;;28.56;59.96
75938;BME280;64615;32.062;34.834;2023-08-06T12:46:53;100429.03;;;28.57;60.12
75938;BME280;64615;32.062;34.834;2023-08-06T12:49:19;100432.56;;;28.57;60.08
75938;BME280;64615;32.062;34.834;2023-08-06T12:51:49;100428.22;;;28.56;59.92